createdAt,value
2023-08-12T00:03:14.189Z,72.72
2023-08-12T00:06:38.234Z,73.17
2023-08-12T00:10:00.913Z,72.19
2023-08-12T00:13:22.600Z,71.50
2023-08-12T00:16:44.295Z,71.83
2023-08-12T00:20:11.831Z,72.86
2023-08-12T00:23:33.539Z,73.18
2023-08-12T00:26:57.685Z,73.14
2023-08-12T00:30:21.897Z,71.86
2023-08-12T00:33:46.389Z,72.39
2023-08-12T00:37:08.033Z,73.39
2023-08-12T00:40:29.651Z,73.64
2023-08-12T00:43:51.245Z,73.92
2023-08-12T00:47:13.371Z,73.57
2023-08-12T00:50:38.702Z,73.94
2023-08-12T00:54:05.302Z,73.91
2023-08-12T00:57:27.006Z,73.73
2023-08-12T01:00:48.723Z,73.18
2023-08-12T01:04:12.892Z,73.16
2023-08-12T01:07:36.934Z,72.70
2023-08-12T01:11:16.787Z,72.84
2023-08-12T01:14:55.452Z,73.98
2023-08-12T01:18:17.403Z,74.03
2023-08-12T01:21:44.832Z,74.16
2023-08-12T01:25:10.360Z,74.20
2023-08-12T01:28:32.019Z,73.53
2023-08-12T01:31:59.447Z,75.33
2023-08-12T01:35:24.957Z,74.74
2023-08-12T01:38:52.569Z,74.47
2023-08-12T01:42:21.602Z,74.78
2023-08-12T01:45:45.516Z,74.48
2023-08-12T01:49:07.169Z,74.18
2023-08-12T01:52:28.954Z,74.94
2023-08-12T01:55:56.822Z,75.06
2023-08-12T01:59:18.542Z,75.33
2023-08-12T02:02:40.280Z,74.85
2023-08-12T02:06:04.551Z,74.65
2023-08-12T02:09:26.312Z,74.50
2023-08-12T02:12:47.965Z,74.60
2023-08-12T02:16:14.382Z,74.63
2023-08-12T02:19:36.102Z,75.07
2023-08-12T02:23:00.981Z,75.16
2023-08-12T02:26:22.631Z,75.35
2023-08-12T02:29:46.720Z,74.87
2023-08-12T02:33:08.373Z,75.29
2023-08-12T02:36:30.109Z,75.33
2023-08-12T02:39:54.241Z,75.17
2023-08-12T02:43:15.951Z,75.48
2023-08-12T02:46:40.030Z,76.00
2023-08-12T02:50:01.723Z,76.00
2023-08-12T02:53:26.067Z,75.58
2023-08-12T02:56:53.573Z,75.46
2023-08-12T03:00:18.209Z,76.12
2023-08-12T03:03:42.384Z,76.53
2023-08-12T03:07:04.149Z,76.74
2023-08-12T03:10:25.840Z,76.76
2023-08-12T03:13:47.435Z,76.47
2023-08-12T03:17:13.793Z,76.44
2023-08-12T03:20:35.675Z,76.19
2023-08-12T03:24:00.082Z,76.10
2023-08-12T03:27:21.726Z,76.18
2023-08-12T03:30:51.732Z,76.37
2023-08-12T03:34:13.700Z,76.30
2023-08-12T03:37:35.434Z,76.41
2023-08-12T03:40:59.557Z,75.77
2023-08-12T03:44:21.194Z,76.04
2023-08-12T03:47:45.300Z,76.08
2023-08-12T03:51:06.915Z,75.77
2023-08-12T03:54:28.540Z,75.94
2023-08-12T03:57:50.212Z,76.11
2023-08-12T04:01:14.192Z,76.48
2023-08-12T04:04:35.894Z,76.42
2023-08-12T04:07:57.470Z,76.36
2023-08-12T04:11:19.079Z,76.53
2023-08-12T04:14:42.117Z,76.16
2023-08-12T04:18:04.175Z,76.13
2023-08-12T04:21:28.100Z,75.11
2023-08-12T04:24:50.155Z,75.08
2023-08-12T04:28:14.830Z,75.28
2023-08-12T04:31:36.603Z,75.05
2023-08-12T04:35:00.523Z,75.21
2023-08-12T04:38:22.207Z,74.69
2023-08-12T04:41:46.145Z,74.72
2023-08-12T04:45:08.146Z,74.18
2023-08-12T04:48:29.827Z,73.92
2023-08-12T04:51:55.143Z,73.92
2023-08-12T04:55:17.069Z,73.93
2023-08-12T04:58:41.147Z,73.44
2023-08-12T05:02:17.161Z,72.52
2023-08-12T05:05:43.660Z,72.14
2023-08-12T05:09:05.478Z,71.97
2023-08-12T05:12:27.162Z,71.38
2023-08-12T05:15:51.396Z,71.00
2023-08-12T05:19:13.046Z,70.54
2023-08-12T05:22:36.732Z,69.47
2023-08-12T05:26:01.120Z,69.12
2023-08-12T05:29:25.244Z,68.56
2023-08-12T05:32:49.416Z,67.95
2023-08-12T05:36:11.167Z,67.59
2023-08-12T05:39:35.020Z,66.86
2023-08-12T05:42:56.646Z,66.21
2023-08-12T05:46:20.644Z,65.94
2023-08-12T05:49:43.475Z,65.34
2023-08-12T05:53:05.170Z,65.91
2023-08-12T05:56:26.857Z,65.00
2023-08-12T05:59:48.516Z,63.90
2023-08-12T06:03:13.235Z,64.05
2023-08-12T06:06:37.634Z,63.02
2023-08-12T06:10:01.500Z,63.77
2023-08-12T06:13:25.482Z,62.82
2023-08-12T06:16:49.834Z,59.80
2023-08-12T06:20:14.896Z,61.05
2023-08-12T06:23:36.538Z,61.85
2023-08-12T06:27:00.634Z,61.02
2023-08-12T06:30:22.315Z,61.24
2023-08-12T06:33:43.972Z,60.16
2023-08-12T06:37:05.555Z,59.69
2023-08-12T06:40:27.990Z,59.17
2023-08-12T06:43:52.085Z,59.77
2023-08-12T06:47:16.220Z,60.17
2023-08-12T06:50:40.171Z,59.59
2023-08-12T06:54:02.503Z,59.66
2023-08-12T06:57:24.193Z,58.39
2023-08-12T07:00:48.060Z,57.56
2023-08-12T07:04:09.723Z,58.29
2023-08-12T07:07:33.789Z,56.58
2023-08-12T07:10:55.488Z,56.80
2023-08-12T07:14:21.909Z,56.57
2023-08-12T07:17:43.529Z,54.85
2023-08-12T07:21:05.271Z,55.57
2023-08-12T07:24:29.356Z,54.32
2023-08-12T07:27:56.063Z,54.25
2023-08-12T07:31:18.869Z,54.93
2023-08-12T07:34:42.904Z,53.09
2023-08-12T07:38:04.852Z,53.37
2023-08-12T07:41:28.682Z,51.58
2023-08-12T07:44:50.309Z,50.30
2023-08-12T07:48:12.132Z,50.97
2023-08-12T07:51:36.120Z,51.22
2023-08-12T07:54:57.769Z,52.61
2023-08-12T07:58:21.742Z,50.49
2023-08-12T08:01:45.637Z,48.81
2023-08-12T08:05:10.096Z,47.08
2023-08-12T08:08:31.821Z,49.40
2023-08-12T08:11:57.305Z,49.46
2023-08-12T08:15:19.356Z,49.45
2023-08-12T08:18:40.948Z,49.14
2023-08-12T08:22:02.658Z,48.73
2023-08-12T08:25:28.729Z,48.97
2023-08-12T08:28:52.895Z,48.98
2023-08-12T08:32:17.817Z,49.15
2023-08-12T08:35:39.562Z,50.14
2023-08-12T08:39:01.203Z,49.86
2023-08-12T08:42:25.915Z,47.15
2023-08-12T08:45:53.291Z,46.34
2023-08-12T08:49:18.605Z,48.26
2023-08-12T08:52:44.448Z,49.04
2023-08-12T08:56:15.631Z,47.05
2023-08-12T08:59:37.814Z,47.10
2023-08-12T09:03:04.479Z,47.48
2023-08-12T09:06:29.592Z,47.50
2023-08-12T09:09:53.783Z,46.79
2023-08-12T09:13:19.488Z,43.69
2023-08-12T09:16:41.229Z,44.86
2023-08-12T09:20:02.972Z,43.85
2023-08-12T09:23:27.076Z,44.41
2023-08-12T09:26:56.546Z,42.77
2023-08-12T09:30:19.269Z,43.89
2023-08-12T09:33:41.416Z,43.48
2023-08-12T09:37:05.479Z,43.97
2023-08-12T09:40:27.584Z,42.69
2023-08-12T09:43:54.248Z,42.87
2023-08-12T09:47:15.864Z,43.77
2023-08-12T09:50:39.833Z,40.33
2023-08-12T09:54:01.808Z,41.43
2023-08-12T09:57:26.928Z,41.49
2023-08-12T10:00:51.553Z,41.95
2023-08-12T10:04:18.043Z,42.56
2023-08-12T10:07:41.329Z,40.55
2023-08-12T10:11:13.141Z,38.16
2023-08-12T10:14:37.760Z,40.09
2023-08-12T10:18:01.770Z,35.92
2023-08-12T10:21:24.570Z,37.41
2023-08-12T10:24:47.437Z,37.74
2023-08-12T10:28:11.824Z,38.62
2023-08-12T10:31:36.455Z,38.30
2023-08-12T10:34:58.801Z,39.28
2023-08-12T10:38:21.716Z,38.59
2023-08-12T10:41:52.312Z,37.20
2023-08-12T10:45:16.098Z,38.02
2023-08-12T10:48:56.936Z,35.07
2023-08-12T10:52:34.955Z,34.77
2023-08-12T10:56:01.004Z,35.22
2023-08-12T10:59:55.110Z,34.48
2023-08-12T11:03:16.981Z,35.24
2023-08-12T11:06:46.825Z,35.54
2023-08-12T11:10:15.273Z,35.58
2023-08-12T11:14:02.972Z,35.26
2023-08-12T11:17:34.095Z,37.65
2023-08-12T11:20:58.821Z,37.93
2023-08-12T11:24:25.468Z,36.20
2023-08-12T11:27:49.005Z,36.58
2023-08-12T11:31:11.350Z,34.46
2023-08-12T11:34:34.166Z,37.68
2023-08-12T11:37:58.687Z,37.06
2023-08-12T11:41:25.706Z,34.94
2023-08-12T11:44:49.664Z,34.42
2023-08-12T11:48:14.606Z,33.59
2023-08-12T11:51:40.955Z,34.72
2023-08-12T11:55:03.060Z,35.34
2023-08-12T11:58:24.773Z,35.19
2023-08-12T12:01:55.347Z,36.01
2023-08-12T12:05:24.770Z,34.61
2023-08-12T12:08:48.209Z,35.01
2023-08-12T12:12:11.580Z,35.67
2023-08-12T12:15:42.753Z,36.56
2023-08-12T12:19:06.602Z,35.53
2023-08-12T12:22:30.512Z,34.02
2023-08-12T12:26:01.712Z,34.94
2023-08-12T12:29:28.293Z,36.14
2023-08-12T12:32:50.028Z,36.55
2023-08-12T12:36:11.748Z,38.10
2023-08-12T12:39:33.377Z,38.32
2023-08-12T12:42:54.984Z,37.33
2023-08-12T12:46:19.328Z,36.61
2023-08-12T12:49:43.232Z,37.17
2023-08-12T12:53:04.986Z,37.32
2023-08-12T12:56:29.179Z,38.60
2023-08-12T12:59:53.035Z,38.10
2023-08-12T13:03:17.029Z,37.62
2023-08-12T13:06:41.785Z,38.78
2023-08-12T13:10:06.133Z,38.57
2023-08-12T13:13:27.905Z,38.00
2023-08-12T13:16:52.071Z,37.22
2023-08-12T13:20:16.419Z,37.53
2023-08-12T13:23:38.079Z,37.93
2023-08-12T13:27:01.902Z,38.62
2023-08-12T13:30:23.627Z,39.18
2023-08-12T13:33:45.272Z,37.96
2023-08-12T13:37:07.059Z,38.79
2023-08-12T13:40:28.758Z,38.71
2023-08-12T13:43:50.547Z,38.22
2023-08-12T13:47:15.084Z,39.24
2023-08-12T13:50:38.777Z,39.22
2023-08-12T13:54:00.374Z,38.97
2023-08-12T13:57:22.094Z,39.09
2023-08-12T14:00:46.018Z,38.81
2023-08-12T14:04:07.645Z,40.33
2023-08-12T14:07:31.917Z,39.70
2023-08-12T14:10:56.376Z,38.79
2023-08-12T14:14:18.030Z,37.93
2023-08-12T14:17:39.726Z,37.92
2023-08-12T14:21:01.466Z,37.77
2023-08-12T14:24:25.586Z,38.30
2023-08-12T14:27:47.176Z,37.62
2023-08-12T14:31:08.916Z,38.85
2023-08-12T14:34:30.610Z,38.48
2023-08-12T14:37:54.901Z,40.44
2023-08-12T14:41:16.537Z,38.85
2023-08-12T14:44:42.970Z,38.39
2023-08-12T14:48:04.886Z,39.32
2023-08-12T14:51:27.018Z,40.58
2023-08-12T14:54:53.366Z,39.55
2023-08-12T14:58:17.466Z,39.15
2023-08-12T15:01:41.201Z,39.33
2023-08-12T15:05:02.828Z,40.27
2023-08-12T15:08:27.179Z,41.60
2023-08-12T15:11:48.821Z,41.45
2023-08-12T15:15:10.679Z,41.40
2023-08-12T15:18:32.473Z,40.93
2023-08-12T15:21:56.444Z,41.10
2023-08-12T15:25:20.786Z,40.50
2023-08-12T15:28:45.027Z,39.85
2023-08-12T15:32:09.250Z,40.92
2023-08-12T15:35:33.289Z,41.54
2023-08-12T15:38:57.667Z,42.14
2023-08-12T15:42:19.343Z,42.50
2023-08-12T15:45:43.174Z,42.54
2023-08-12T15:49:11.755Z,42.69
2023-08-12T15:52:35.836Z,42.76
2023-08-12T15:55:57.596Z,42.81
2023-08-12T15:59:20.777Z,42.90
2023-08-12T16:02:43.536Z,43.10
2023-08-12T16:06:05.230Z,41.98
2023-08-12T16:09:26.909Z,42.43
2023-08-12T16:12:48.556Z,43.25
2023-08-12T16:16:12.667Z,43.76
2023-08-12T16:19:34.328Z,43.80
2023-08-12T16:22:55.945Z,44.15
2023-08-12T16:26:18.757Z,43.58
2023-08-12T16:29:41.849Z,43.93
2023-08-12T16:33:05.314Z,44.22
2023-08-12T16:36:27.057Z,44.64
2023-08-12T16:39:49.274Z,44.61
2023-08-12T16:43:12.915Z,45.13
2023-08-12T16:46:34.583Z,45.04
2023-08-12T16:49:56.170Z,45.24
2023-08-12T16:53:17.856Z,45.27
2023-08-12T16:56:44.203Z,46.30
2023-08-12T17:00:07.101Z,46.15
2023-08-12T17:03:28.784Z,45.79
2023-08-12T17:06:53.932Z,46.31
2023-08-12T17:10:20.637Z,47.76
2023-08-12T17:13:42.487Z,47.39
2023-08-12T17:17:04.352Z,48.14
2023-08-12T17:20:28.628Z,48.84
2023-08-12T17:23:55.240Z,48.15
2023-08-12T17:27:16.993Z,48.22
2023-08-12T17:30:38.685Z,49.00
2023-08-12T17:34:03.825Z,49.63
2023-08-12T17:37:25.607Z,50.23
2023-08-12T17:40:50.270Z,50.71
2023-08-12T17:44:11.902Z,50.81
2023-08-12T17:47:38.400Z,51.27
2023-08-12T17:51:02.325Z,52.62
2023-08-12T17:54:29.474Z,51.01
2023-08-12T17:57:53.632Z,54.46
2023-08-12T18:01:18.203Z,54.41
2023-08-12T18:04:42.181Z,54.04
2023-08-12T18:08:06.828Z,54.47
2023-08-12T18:11:28.671Z,54.98
2023-08-12T18:14:50.340Z,55.46
2023-08-12T18:18:11.960Z,56.23
2023-08-12T18:21:36.611Z,57.93
2023-08-12T18:24:58.199Z,57.31
2023-08-12T18:28:19.854Z,57.98
2023-08-12T18:31:41.449Z,57.45
2023-08-12T18:35:03.387Z,57.54
2023-08-12T18:38:25.097Z,59.17
2023-08-12T18:41:47.056Z,58.84
2023-08-12T18:45:11.908Z,59.05
2023-08-12T18:48:33.580Z,59.63
2023-08-12T18:51:55.437Z,60.34
2023-08-12T18:55:22.481Z,60.68
2023-08-12T18:58:46.509Z,61.09
2023-08-12T19:02:11.070Z,62.23
2023-08-12T19:05:32.729Z,63.10
2023-08-12T19:08:54.486Z,63.73
2023-08-12T19:12:16.286Z,63.24
2023-08-12T19:15:38.261Z,63.40
2023-08-12T19:19:02.163Z,63.53
2023-08-12T19:22:23.815Z,64.11
2023-08-12T19:25:45.548Z,63.54
2023-08-12T19:29:07.223Z,64.92
2023-08-12T19:32:28.904Z,65.16
2023-08-12T19:35:50.762Z,65.32
2023-08-12T19:39:12.408Z,64.32
2023-08-12T19:42:34.278Z,65.36
2023-08-12T19:46:00.816Z,65.77
2023-08-12T19:49:22.544Z,66.14
2023-08-12T19:52:48.956Z,66.48
2023-08-12T19:56:10.644Z,65.83
2023-08-12T19:59:32.276Z,66.20
2023-08-12T20:02:56.773Z,66.96
2023-08-12T20:06:18.531Z,67.42
2023-08-12T20:09:42.654Z,67.25
2023-08-12T20:13:04.568Z,66.64
2023-08-12T20:16:26.225Z,66.82
2023-08-12T20:19:50.083Z,66.72
2023-08-12T20:23:11.865Z,67.43
2023-08-12T20:26:33.530Z,67.26
2023-08-12T20:29:55.156Z,67.35
2023-08-12T20:33:17.101Z,67.63
2023-08-12T20:36:38.804Z,67.75
2023-08-12T20:40:00.451Z,68.26
2023-08-12T20:43:22.138Z,67.60
2023-08-12T20:46:46.065Z,68.38
2023-08-12T20:50:10.550Z,68.16
2023-08-12T20:53:34.660Z,69.05
2023-08-12T20:56:56.355Z,68.52
2023-08-12T21:00:20.331Z,68.69
2023-08-12T21:03:44.331Z,68.80
2023-08-12T21:07:06.716Z,69.27
2023-08-12T21:10:28.401Z,69.45
2023-08-12T21:13:50.045Z,69.37
2023-08-12T21:17:12.003Z,69.48
2023-08-12T21:20:33.736Z,69.74
2023-08-12T21:23:55.339Z,69.34
2023-08-12T21:27:19.390Z,69.43
2023-08-12T21:30:43.556Z,70.06
2023-08-12T21:34:08.968Z,70.28
2023-08-12T21:37:33.355Z,70.00
2023-08-12T21:40:57.492Z,68.77
2023-08-12T21:44:21.530Z,69.37
2023-08-12T21:47:43.300Z,69.41
2023-08-12T21:51:05.701Z,69.87
2023-08-12T21:54:28.514Z,70.00
2023-08-12T21:57:52.522Z,69.90
2023-08-12T22:01:14.668Z,69.79
2023-08-12T22:04:38.639Z,70.68
2023-08-12T22:08:02.695Z,70.92
2023-08-12T22:11:29.121Z,70.92
2023-08-12T22:14:50.816Z,71.20
2023-08-12T22:18:12.708Z,71.12
2023-08-12T22:21:37.062Z,71.57
2023-08-12T22:24:58.691Z,72.35
2023-08-12T22:28:22.582Z,72.94
2023-08-12T22:31:44.246Z,72.95
2023-08-12T22:35:08.702Z,72.86
2023-08-12T22:38:33.079Z,72.80
2023-08-12T22:41:54.686Z,73.24
2023-08-12T22:45:16.861Z,73.36
2023-08-12T22:48:38.517Z,72.92
2023-08-12T22:52:02.674Z,73.10
2023-08-12T22:55:24.388Z,73.60
2023-08-12T22:58:46.131Z,73.59
2023-08-12T23:02:10.168Z,73.40
2023-08-12T23:05:31.882Z,73.18
2023-08-12T23:08:53.732Z,72.74
2023-08-12T23:12:20.715Z,72.97
2023-08-12T23:15:43.674Z,72.58
2023-08-12T23:19:05.783Z,73.14
2023-08-12T23:22:27.414Z,73.49
2023-08-12T23:25:49.042Z,73.56
2023-08-12T23:29:13.179Z,73.92
2023-08-12T23:32:38.540Z,73.47
2023-08-12T23:36:05.231Z,73.26
2023-08-12T23:39:27.602Z,73.63
2023-08-12T23:42:51.560Z,73.68
2023-08-12T23:46:13.873Z,74.34
2023-08-12T23:49:35.570Z,74.23
2023-08-12T23:52:59.681Z,74.26
2023-08-12T23:56:23.508Z,74.48
2023-08-12T23:59:47.341Z,74.21
